sensor_id;sensor_type;location;lat;lon;timestamp;P1;durP1;ratioP1;P2;durP2;ratioP2
16969;SDS011;8601;48.718;8.992;2024-01-06T00:02:22;6.10;;;4.17;;
16969;SDS011;8601;48.718;8.992;2024-01-06T00:04:48;6.10;;;4.57;;
16969;SDS011;8601;48.718;8.992;2024-01-06T00:07:15;5.50;;;3.87;;
16969;SDS011;8601;48.718;8.992;2024-01-06T00:09:42;5.47;;;4.50;;
16969;SDS011;8601;48.718;8.992;2024-01-06T00:12:09;6.93;;;4.73;;
16969;SDS011;8601;48.718;8.992;2024-01-06T00:14:35;6.70;;;4.63;;
16969;SDS011;8601;48.718;8.992;2024-01-06T00:17:04;8.87;;;4.83;;
16969;SDS011;8601;48.718;8.992;2024-01-06T00:19:31;6.50;;;5.00;;
16969;SDS011;8601;48.718;8.992;2024-01-06T00:21:57;6.43;;;5.20;;
16969;SDS011;8601;48.718;8.992;2024-01-06T00:24:25;5.40;;;4.90;;
16969;SDS011;8601;48.718;8.992;2024-01-06T00:26:52;6.40;;;4.47;;
16969;SDS011;8601;48.718;8.992;2024-01-06T00:29:19;5.50;;;4.27;;
16969;SDS011;8601;48.718;8.992;2024-01-06T00:31:46;6.43;;;4.70;;
16969;SDS011;8601;48.718;8.992;2024-01-06T00:34:14;5.60;;;4.47;;
16969;SDS011;8601;48.718;8.992;2024-01-06T00:36:41;5.53;;;4.20;;
16969;SDS011;8601;48.718;8.992;2024-01-06T00:39:07;6.30;;;4.30;;
16969;SDS011;8601;48.718;8.992;2024-01-06T00:41:34;7.37;;;4.43;;
16969;SDS011;8601;48.718;8.992;2024-01-06T00:44:01;4.70;;;4.20;;
16969;SDS011;8601;48.718;8.992;2024-01-06T00:46:28;5.23;;;3.70;;
16969;SDS011;8601;48.718;8.992;2024-01-06T00:48:54;6.00;;;3.93;;
16969;SDS011;8601;48.718;8.992;2024-01-06T00:51:23;4.93;;;3.57;;
16969;SDS011;8601;48.718;8.992;2024-01-06T00:53:49;5.30;;;3.77;;
16969;SDS011;8601;48.718;8.992;2024-01-06T00:56:16;4.47;;;3.77;;
16969;SDS011;8601;48.718;8.992;2024-01-06T00:58:43;5.37;;;3.33;;
16969;SDS011;8601;48.718;8.992;2024-01-06T01:01:11;4.30;;;3.40;;
16969;SDS011;8601;48.718;8.992;2024-01-06T01:03:38;4.60;;;3.17;;
16969;SDS011;8601;48.718;8.992;2024-01-06T01:06:04;7.37;;;3.23;;
16969;SDS011;8601;48.718;8.992;2024-01-06T01:08:32;5.70;;;3.57;;
16969;SDS011;8601;48.718;8.992;2024-01-06T01:10:59;3.60;;;3.30;;
16969;SDS011;8601;48.718;8.992;2024-01-06T01:13:26;4.27;;;3.30;;
16969;SDS011;8601;48.718;8.992;2024-01-06T01:15:53;3.87;;;3.23;;
16969;SDS011;8601;48.718;8.992;2024-01-06T01:18:22;5.10;;;3.17;;
16969;SDS011;8601;48.718;8.992;2024-01-06T01:20:49;4.20;;;2.80;;
16969;SDS011;8601;48.718;8.992;2024-01-06T01:23:15;4.10;;;3.00;;
16969;SDS011;8601;48.718;8.992;2024-01-06T01:25:43;4.80;;;3.23;;
16969;SDS011;8601;48.718;8.992;2024-01-06T01:28:10;3.93;;;2.83;;
16969;SDS011;8601;48.718;8.992;2024-01-06T01:30:37;3.30;;;3.00;;
16969;SDS011;8601;48.718;8.992;2024-01-06T01:33:04;3.60;;;2.97;;
16969;SDS011;8601;48.718;8.992;2024-01-06T01:35:31;3.80;;;3.33;;
16969;SDS011;8601;48.718;8.992;2024-01-06T01:37:57;5.10;;;3.07;;
16969;SDS011;8601;48.718;8.992;2024-01-06T01:40:24;3.93;;;2.70;;
16969;SDS011;8601;48.718;8.992;2024-01-06T01:42:52;5.63;;;2.73;;
16969;SDS011;8601;48.718;8.992;2024-01-06T01:45:19;4.57;;;2.83;;
16969;SDS011;8601;48.718;8.992;2024-01-06T01:47:46;4.07;;;2.77;;
16969;SDS011;8601;48.718;8.992;2024-01-06T01:50:14;4.13;;;2.80;;
16969;SDS011;8601;48.718;8.992;2024-01-06T01:52:41;4.00;;;3.30;;
16969;SDS011;8601;48.718;8.992;2024-01-06T01:55:08;6.47;;;3.03;;
16969;SDS011;8601;48.718;8.992;2024-01-06T01:57:36;3.27;;;2.60;;
16969;SDS011;8601;48.718;8.992;2024-01-06T02:00:04;6.83;;;3.03;;
16969;SDS011;8601;48.718;8.992;2024-01-06T02:02:33;6.23;;;2.73;;
16969;SDS011;8601;48.718;8.992;2024-01-06T02:05:00;6.63;;;2.97;;
16969;SDS011;8601;48.718;8.992;2024-01-06T02:07:26;3.87;;;3.10;;
16969;SDS011;8601;48.718;8.992;2024-01-06T02:09:53;3.10;;;2.50;;
16969;SDS011;8601;48.718;8.992;2024-01-06T02:12:20;8.53;;;2.97;;
16969;SDS011;8601;48.718;8.992;2024-01-06T02:14:47;4.50;;;3.43;;
16969;SDS011;8601;48.718;8.992;2024-01-06T02:17:15;6.13;;;3.23;;
16969;SDS011;8601;48.718;8.992;2024-01-06T02:19:42;7.00;;;3.67;;
16969;SDS011;8601;48.718;8.992;2024-01-06T02:22:10;5.90;;;3.83;;
16969;SDS011;8601;48.718;8.992;2024-01-06T02:24:37;6.13;;;4.10;;
16969;SDS011;8601;48.718;8.992;2024-01-06T02:27:04;6.43;;;3.50;;
16969;SDS011;8601;48.718;8.992;2024-01-06T02:29:30;4.57;;;3.60;;
16969;SDS011;8601;48.718;8.992;2024-01-06T02:31:57;5.93;;;4.00;;
16969;SDS011;8601;48.718;8.992;2024-01-06T02:34:24;6.03;;;3.93;;
16969;SDS011;8601;48.718;8.992;2024-01-06T02:36:51;5.77;;;3.93;;
16969;SDS011;8601;48.718;8.992;2024-01-06T02:39:19;6.63;;;3.40;;
16969;SDS011;8601;48.718;8.992;2024-01-06T02:41:48;5.43;;;3.40;;
16969;SDS011;8601;48.718;8.992;2024-01-06T02:44:16;4.10;;;3.20;;
16969;SDS011;8601;48.718;8.992;2024-01-06T02:46:43;5.80;;;3.50;;
16969;SDS011;8601;48.718;8.992;2024-01-06T02:49:10;4.73;;;3.63;;
16969;SDS011;8601;48.718;8.992;2024-01-06T02:51:37;4.53;;;3.57;;
16969;SDS011;8601;48.718;8.992;2024-01-06T02:54:04;5.47;;;3.40;;
16969;SDS011;8601;48.718;8.992;2024-01-06T02:56:32;6.13;;;3.40;;
16969;SDS011;8601;48.718;8.992;2024-01-06T02:58:58;4.60;;;3.60;;
16969;SDS011;8601;48.718;8.992;2024-01-06T03:01:25;4.13;;;3.30;;
16969;SDS011;8601;48.718;8.992;2024-01-06T03:03:52;4.27;;;3.47;;
16969;SDS011;8601;48.718;8.992;2024-01-06T03:06:19;4.00;;;3.60;;
16969;SDS011;8601;48.718;8.992;2024-01-06T03:08:46;5.37;;;3.60;;
16969;SDS011;8601;48.718;8.992;2024-01-06T03:11:12;6.40;;;3.70;;
16969;SDS011;8601;48.718;8.992;2024-01-06T03:13:41;5.40;;;3.80;;
16969;SDS011;8601;48.718;8.992;2024-01-06T03:16:08;7.40;;;3.83;;
16969;SDS011;8601;48.718;8.992;2024-01-06T03:18:37;4.33;;;3.17;;
16969;SDS011;8601;48.718;8.992;2024-01-06T03:21:04;6.23;;;3.30;;
16969;SDS011;8601;48.718;8.992;2024-01-06T03:23:30;7.17;;;3.30;;
16969;SDS011;8601;48.718;8.992;2024-01-06T03:25:57;6.47;;;3.30;;
16969;SDS011;8601;48.718;8.992;2024-01-06T03:28:24;4.77;;;3.47;;
16969;SDS011;8601;48.718;8.992;2024-01-06T03:30:52;4.93;;;3.93;;
16969;SDS011;8601;48.718;8.992;2024-01-06T03:33:19;3.60;;;3.30;;
16969;SDS011;8601;48.718;8.992;2024-01-06T03:35:46;6.30;;;3.77;;
16969;SDS011;8601;48.718;8.992;2024-01-06T03:38:12;4.40;;;4.00;;
16969;SDS011;8601;48.718;8.992;2024-01-06T03:40:39;5.40;;;3.63;;
16969;SDS011;8601;48.718;8.992;2024-01-06T03:43:06;5.13;;;3.10;;
16969;SDS011;8601;48.718;8.992;2024-01-06T03:45:33;4.77;;;3.10;;
16969;SDS011;8601;48.718;8.992;2024-01-06T03:48:01;6.10;;;3.27;;
16969;SDS011;8601;48.718;8.992;2024-01-06T03:50:28;7.20;;;3.20;;
16969;SDS011;8601;48.718;8.992;2024-01-06T03:52:55;4.03;;;2.77;;
16969;SDS011;8601;48.718;8.992;2024-01-06T03:55:22;4.63;;;3.47;;
16969;SDS011;8601;48.718;8.992;2024-01-06T03:57:48;3.63;;;2.70;;
16969;SDS011;8601;48.718;8.992;2024-01-06T04:00:16;5.23;;;3.67;;
16969;SDS011;8601;48.718;8.992;2024-01-06T04:02:43;2.67;;;2.47;;
16969;SDS011;8601;48.718;8.992;2024-01-06T04:05:11;5.50;;;3.03;;
16969;SDS011;8601;48.718;8.992;2024-01-06T04:07:38;3.43;;;2.90;;
16969;SDS011;8601;48.718;8.992;2024-01-06T04:10:05;6.03;;;2.97;;
16969;SDS011;8601;48.718;8.992;2024-01-06T04:12:32;5.03;;;2.97;;
16969;SDS011;8601;48.718;8.992;2024-01-06T04:14:59;4.57;;;2.43;;
16969;SDS011;8601;48.718;8.992;2024-01-06T04:17:25;3.60;;;2.57;;
16969;SDS011;8601;48.718;8.992;2024-01-06T04:19:52;4.87;;;2.60;;
16969;SDS011;8601;48.718;8.992;2024-01-06T04:22:21;4.27;;;2.63;;
16969;SDS011;8601;48.718;8.992;2024-01-06T04:24:48;5.00;;;2.80;;
16969;SDS011;8601;48.718;8.992;2024-01-06T04:27:15;3.40;;;3.10;;
16969;SDS011;8601;48.718;8.992;2024-01-06T04:29:42;7.27;;;3.17;;
16969;SDS011;8601;48.718;8.992;2024-01-06T04:32:09;4.93;;;2.97;;
16969;SDS011;8601;48.718;8.992;2024-01-06T04:34:35;2.77;;;2.10;;
16969;SDS011;8601;48.718;8.992;2024-01-06T04:37:02;2.53;;;2.33;;
16969;SDS011;8601;48.718;8.992;2024-01-06T04:39:31;4.13;;;2.73;;
16969;SDS011;8601;48.718;8.992;2024-01-06T04:41:57;3.70;;;2.60;;
16969;SDS011;8601;48.718;8.992;2024-01-06T04:44:24;5.33;;;2.73;;
16969;SDS011;8601;48.718;8.992;2024-01-06T04:46:51;4.63;;;3.13;;
16969;SDS011;8601;48.718;8.992;2024-01-06T04:49:18;7.67;;;3.57;;
16969;SDS011;8601;48.718;8.992;2024-01-06T04:51:44;3.30;;;2.67;;
16969;SDS011;8601;48.718;8.992;2024-01-06T04:54:11;4.17;;;2.67;;
16969;SDS011;8601;48.718;8.992;2024-01-06T04:56:39;3.77;;;2.47;;
16969;SDS011;8601;48.718;8.992;2024-01-06T04:59:06;8.00;;;2.93;;
16969;SDS011;8601;48.718;8.992;2024-01-06T05:01:33;6.13;;;2.70;;
16969;SDS011;8601;48.718;8.992;2024-01-06T05:04:00;5.37;;;2.57;;
16969;SDS011;8601;48.718;8.992;2024-01-06T05:06:27;4.10;;;2.30;;
16969;SDS011;8601;48.718;8.992;2024-01-06T05:08:53;3.73;;;2.50;;
16969;SDS011;8601;48.718;8.992;2024-01-06T05:11:20;4.13;;;2.80;;
16969;SDS011;8601;48.718;8.992;2024-01-06T05:13:48;5.37;;;2.50;;
16969;SDS011;8601;48.718;8.992;2024-01-06T05:16:15;4.50;;;2.30;;
16969;SDS011;8601;48.718;8.992;2024-01-06T05:18:42;6.23;;;3.00;;
16969;SDS011;8601;48.718;8.992;2024-01-06T05:21:09;4.33;;;2.50;;
16969;SDS011;8601;48.718;8.992;2024-01-06T05:23:35;4.33;;;3.20;;
16969;SDS011;8601;48.718;8.992;2024-01-06T05:26:02;4.70;;;2.70;;
16969;SDS011;8601;48.718;8.992;2024-01-06T05:28:30;3.27;;;2.80;;
16969;SDS011;8601;48.718;8.992;2024-01-06T05:30:58;3.10;;;2.40;;
16969;SDS011;8601;48.718;8.992;2024-01-06T05:33:24;3.33;;;3.03;;
16969;SDS011;8601;48.718;8.992;2024-01-06T05:35:51;4.53;;;2.83;;
16969;SDS011;8601;48.718;8.992;2024-01-06T05:38:18;4.10;;;3.40;;
16969;SDS011;8601;48.718;8.992;2024-01-06T05:40:45;4.30;;;2.50;;
16969;SDS011;8601;48.718;8.992;2024-01-06T05:43:12;6.73;;;3.17;;
16969;SDS011;8601;48.718;8.992;2024-01-06T05:45:38;3.07;;;2.80;;
16969;SDS011;8601;48.718;8.992;2024-01-06T05:48:09;4.00;;;3.33;;
16969;SDS011;8601;48.718;8.992;2024-01-06T05:50:36;4.80;;;2.60;;
16969;SDS011;8601;48.718;8.992;2024-01-06T05:53:04;5.57;;;3.10;;
16969;SDS011;8601;48.718;8.992;2024-01-06T05:55:30;6.10;;;2.77;;
16969;SDS011;8601;48.718;8.992;2024-01-06T05:57:57;7.13;;;3.20;;
16969;SDS011;8601;48.718;8.992;2024-01-06T06:00:24;4.50;;;2.70;;
16969;SDS011;8601;48.718;8.992;2024-01-06T06:02:51;4.87;;;3.20;;
16969;SDS011;8601;48.718;8.992;2024-01-06T06:05:19;5.33;;;2.97;;
16969;SDS011;8601;48.718;8.992;2024-01-06T06:07:46;4.50;;;3.10;;
16969;SDS011;8601;48.718;8.992;2024-01-06T06:10:13;4.00;;;2.90;;
16969;SDS011;8601;48.718;8.992;2024-01-06T06:12:41;4.23;;;2.93;;
16969;SDS011;8601;48.718;8.992;2024-01-06T06:15:08;7.53;;;2.80;;
16969;SDS011;8601;48.718;8.992;2024-01-06T06:17:35;3.63;;;2.37;;
16969;SDS011;8601;48.718;8.992;2024-01-06T06:20:02;3.77;;;2.50;;
16969;SDS011;8601;48.718;8.992;2024-01-06T06:22:32;2.30;;;2.10;;
16969;SDS011;8601;48.718;8.992;2024-01-06T06:24:59;4.57;;;2.40;;
16969;SDS011;8601;48.718;8.992;2024-01-06T06:27:27;3.67;;;2.43;;
16969;SDS011;8601;48.718;8.992;2024-01-06T06:29:54;2.30;;;2.07;;
16969;SDS011;8601;48.718;8.992;2024-01-06T06:32:22;3.70;;;2.33;;
16969;SDS011;8601;48.718;8.992;2024-01-06T06:34:50;3.23;;;2.23;;
16969;SDS011;8601;48.718;8.992;2024-01-06T06:37:17;3.30;;;2.33;;
16969;SDS011;8601;48.718;8.992;2024-01-06T06:39:46;2.30;;;2.10;;
16969;SDS011;8601;48.718;8.992;2024-01-06T06:42:12;2.87;;;2.10;;
16969;SDS011;8601;48.718;8.992;2024-01-06T06:44:39;4.67;;;2.57;;
16969;SDS011;8601;48.718;8.992;2024-01-06T06:47:06;3.10;;;2.00;;
16969;SDS011;8601;48.718;8.992;2024-01-06T06:49:33;3.17;;;2.20;;
16969;SDS011;8601;48.718;8.992;2024-01-06T06:52:01;2.30;;;2.10;;
16969;SDS011;8601;48.718;8.992;2024-01-06T06:54:28;4.33;;;2.70;;
16969;SDS011;8601;48.718;8.992;2024-01-06T06:56:57;2.20;;;2.00;;
16969;SDS011;8601;48.718;8.992;2024-01-06T06:59:24;3.13;;;2.40;;
16969;SDS011;8601;48.718;8.992;2024-01-06T07:01:50;3.17;;;2.27;;
16969;SDS011;8601;48.718;8.992;2024-01-06T07:04:17;5.30;;;2.87;;
16969;SDS011;8601;48.718;8.992;2024-01-06T07:06:44;3.97;;;2.30;;
16969;SDS011;8601;48.718;8.992;2024-01-06T07:09:11;2.60;;;2.20;;
16969;SDS011;8601;48.718;8.992;2024-01-06T07:11:38;3.33;;;3.03;;
16969;SDS011;8601;48.718;8.992;2024-01-06T07:14:06;2.50;;;2.27;;
16969;SDS011;8601;48.718;8.992;2024-01-06T07:16:33;2.67;;;2.20;;
16969;SDS011;8601;48.718;8.992;2024-01-06T07:19:00;3.37;;;2.10;;
16969;SDS011;8601;48.718;8.992;2024-01-06T07:21:27;3.33;;;2.07;;
16969;SDS011;8601;48.718;8.992;2024-01-06T07:23:54;2.20;;;2.10;;
16969;SDS011;8601;48.718;8.992;2024-01-06T07:26:21;2.37;;;2.17;;
16969;SDS011;8601;48.718;8.992;2024-01-06T07:28:47;3.17;;;2.43;;
16969;SDS011;8601;48.718;8.992;2024-01-06T07:31:16;2.60;;;2.40;;
16969;SDS011;8601;48.718;8.992;2024-01-06T07:33:43;2.87;;;2.23;;
16969;SDS011;8601;48.718;8.992;2024-01-06T07:36:10;2.30;;;2.10;;
16969;SDS011;8601;48.718;8.992;2024-01-06T07:38:42;2.27;;;2.07;;
16969;SDS011;8601;48.718;8.992;2024-01-06T07:41:11;2.63;;;2.07;;
16969;SDS011;8601;48.718;8.992;2024-01-06T07:43:37;2.60;;;2.40;;
16969;SDS011;8601;48.718;8.992;2024-01-06T07:46:04;3.07;;;2.07;;
16969;SDS011;8601;48.718;8.992;2024-01-06T07:48:33;3.00;;;1.80;;
16969;SDS011;8601;48.718;8.992;2024-01-06T07:51:00;2.73;;;2.47;;
16969;SDS011;8601;48.718;8.992;2024-01-06T07:53:28;3.77;;;2.70;;
16969;SDS011;8601;48.718;8.992;2024-01-06T07:55:56;2.40;;;2.20;;
16969;SDS011;8601;48.718;8.992;2024-01-06T07:58:23;3.23;;;2.27;;
16969;SDS011;8601;48.718;8.992;2024-01-06T08:00:50;2.83;;;2.53;;
16969;SDS011;8601;48.718;8.992;2024-01-06T08:03:16;2.97;;;2.50;;
16969;SDS011;8601;48.718;8.992;2024-01-06T08:05:45;3.07;;;2.73;;
16969;SDS011;8601;48.718;8.992;2024-01-06T08:08:11;2.77;;;2.50;;
16969;SDS011;8601;48.718;8.992;2024-01-06T08:10:41;3.70;;;2.50;;
16969;SDS011;8601;48.718;8.992;2024-01-06T08:13:08;2.40;;;2.23;;
16969;SDS011;8601;48.718;8.992;2024-01-06T08:15:35;3.97;;;2.37;;
16969;SDS011;8601;48.718;8.992;2024-01-06T08:18:02;3.43;;;2.27;;
16969;SDS011;8601;48.718;8.992;2024-01-06T08:20:31;2.90;;;2.63;;
16969;SDS011;8601;48.718;8.992;2024-01-06T08:23:00;3.03;;;2.47;;
16969;SDS011;8601;48.718;8.992;2024-01-06T08:25:27;3.57;;;3.00;;
16969;SDS011;8601;48.718;8.992;2024-01-06T08:27:53;3.63;;;3.30;;
16969;SDS011;8601;48.718;8.992;2024-01-06T08:30:20;3.43;;;3.03;;
16969;SDS011;8601;48.718;8.992;2024-01-06T08:32:48;5.60;;;3.67;;
16969;SDS011;8601;48.718;8.992;2024-01-06T08:35:15;4.00;;;3.60;;
16969;SDS011;8601;48.718;8.992;2024-01-06T08:37:42;3.03;;;2.80;;
16969;SDS011;8601;48.718;8.992;2024-01-06T08:40:11;3.57;;;2.93;;
16969;SDS011;8601;48.718;8.992;2024-01-06T08:42:38;3.40;;;3.10;;
16969;SDS011;8601;48.718;8.992;2024-01-06T08:45:05;4.07;;;3.13;;
16969;SDS011;8601;48.718;8.992;2024-01-06T08:47:32;2.70;;;2.50;;
16969;SDS011;8601;48.718;8.992;2024-01-06T08:49:59;3.53;;;3.17;;
16969;SDS011;8601;48.718;8.992;2024-01-06T08:52:26;3.53;;;3.20;;
16969;SDS011;8601;48.718;8.992;2024-01-06T08:54:52;3.93;;;2.97;;
16969;SDS011;8601;48.718;8.992;2024-01-06T08:57:21;3.23;;;2.93;;
16969;SDS011;8601;48.718;8.992;2024-01-06T08:59:48;3.80;;;2.53;;
16969;SDS011;8601;48.718;8.992;2024-01-06T09:02:15;3.70;;;2.70;;
16969;SDS011;8601;48.718;8.992;2024-01-06T09:04:41;3.30;;;3.00;;
16969;SDS011;8601;48.718;8.992;2024-01-06T09:07:08;3.13;;;2.47;;
16969;SDS011;8601;48.718;8.992;2024-01-06T09:09:35;3.57;;;2.67;;
16969;SDS011;8601;48.718;8.992;2024-01-06T09:12:03;4.07;;;2.80;;
16969;SDS011;8601;48.718;8.992;2024-01-06T09:14:31;4.00;;;3.60;;
16969;SDS011;8601;48.718;8.992;2024-01-06T09:16:58;2.33;;;2.13;;
16969;SDS011;8601;48.718;8.992;2024-01-06T09:19:25;2.30;;;2.10;;
16969;SDS011;8601;48.718;8.992;2024-01-06T09:21:53;2.60;;;2.37;;
16969;SDS011;8601;48.718;8.992;2024-01-06T09:24:20;2.63;;;2.20;;
16969;SDS011;8601;48.718;8.992;2024-01-06T09:26:47;2.87;;;2.00;;
16969;SDS011;8601;48.718;8.992;2024-01-06T09:29:15;2.60;;;1.77;;
16969;SDS011;8601;48.718;8.992;2024-01-06T09:31:43;2.47;;;2.00;;
16969;SDS011;8601;48.718;8.992;2024-01-06T09:34:10;1.93;;;1.80;;
16969;SDS011;8601;48.718;8.992;2024-01-06T09:36:38;2.10;;;1.90;;
16969;SDS011;8601;48.718;8.992;2024-01-06T09:39:05;2.20;;;2.10;;
16969;SDS011;8601;48.718;8.992;2024-01-06T09:41:33;2.13;;;2.00;;
16969;SDS011;8601;48.718;8.992;2024-01-06T09:44:00;2.27;;;1.93;;
16969;SDS011;8601;48.718;8.992;2024-01-06T09:46:27;2.00;;;1.80;;
16969;SDS011;8601;48.718;8.992;2024-01-06T09:48:56;2.10;;;2.00;;
16969;SDS011;8601;48.718;8.992;2024-01-06T09:51:25;1.97;;;1.63;;
16969;SDS011;8601;48.718;8.992;2024-01-06T09:53:56;2.20;;;2.07;;
16969;SDS011;8601;48.718;8.992;2024-01-06T09:56:24;2.00;;;1.90;;
16969;SDS011;8601;48.718;8.992;2024-01-06T09:58:53;3.03;;;2.10;;
16969;SDS011;8601;48.718;8.992;2024-01-06T10:01:20;1.87;;;1.77;;
16969;SDS011;8601;48.718;8.992;2024-01-06T10:03:48;2.20;;;2.10;;
16969;SDS011;8601;48.718;8.992;2024-01-06T10:06:17;2.40;;;1.70;;
16969;SDS011;8601;48.718;8.992;2024-01-06T10:08:48;2.03;;;1.93;;
16969;SDS011;8601;48.718;8.992;2024-01-06T10:11:15;1.80;;;1.63;;
16969;SDS011;8601;48.718;8.992;2024-01-06T10:13:42;2.23;;;1.80;;
16969;SDS011;8601;48.718;8.992;2024-01-06T10:16:09;1.87;;;1.77;;
16969;SDS011;8601;48.718;8.992;2024-01-06T10:18:36;2.30;;;2.17;;
16969;SDS011;8601;48.718;8.992;2024-01-06T10:21:03;1.87;;;1.70;;
16969;SDS011;8601;48.718;8.992;2024-01-06T10:23:32;2.27;;;2.10;;
16969;SDS011;8601;48.718;8.992;2024-01-06T10:25:59;1.83;;;1.73;;
16969;SDS011;8601;48.718;8.992;2024-01-06T10:28:26;2.03;;;1.83;;
16969;SDS011;8601;48.718;8.992;2024-01-06T10:30:54;1.90;;;1.77;;
16969;SDS011;8601;48.718;8.992;2024-01-06T10:33:24;3.13;;;1.70;;
16969;SDS011;8601;48.718;8.992;2024-01-06T10:35:52;2.30;;;1.70;;
16969;SDS011;8601;48.718;8.992;2024-01-06T10:38:20;1.83;;;1.30;;
16969;SDS011;8601;48.718;8.992;2024-01-06T10:40:58;1.20;;;1.20;;
16969;SDS011;8601;48.718;8.992;2024-01-06T10:43:27;2.00;;;1.30;;
16969;SDS011;8601;48.718;8.992;2024-01-06T10:45:55;1.60;;;1.50;;
16969;SDS011;8601;48.718;8.992;2024-01-06T10:48:24;1.53;;;1.43;;
16969;SDS011;8601;48.718;8.992;2024-01-06T10:50:51;1.33;;;1.30;;
16969;SDS011;8601;48.718;8.992;2024-01-06T10:53:20;1.50;;;1.40;;
16969;SDS011;8601;48.718;8.992;2024-01-06T10:55:49;1.63;;;1.57;;
16969;SDS011;8601;48.718;8.992;2024-01-06T10:58:18;1.30;;;1.30;;
16969;SDS011;8601;48.718;8.992;2024-01-06T11:00:44;1.80;;;1.60;;
16969;SDS011;8601;48.718;8.992;2024-01-06T11:03:13;1.77;;;1.67;;
16969;SDS011;8601;48.718;8.992;2024-01-06T11:05:40;1.63;;;1.27;;
16969;SDS011;8601;48.718;8.992;2024-01-06T11:08:08;1.40;;;1.30;;
16969;SDS011;8601;48.718;8.992;2024-01-06T11:10:36;3.00;;;1.57;;
16969;SDS011;8601;48.718;8.992;2024-01-06T11:13:08;1.77;;;1.67;;
16969;SDS011;8601;48.718;8.992;2024-01-06T11:15:41;3.57;;;2.10;;
16969;SDS011;8601;48.718;8.992;2024-01-06T11:18:10;1.63;;;1.53;;
16969;SDS011;8601;48.718;8.992;2024-01-06T11:21:14;2.03;;;1.93;;
16969;SDS011;8601;48.718;8.992;2024-01-06T11:23:42;1.40;;;1.40;;
16969;SDS011;8601;48.718;8.992;2024-01-06T11:26:09;1.67;;;1.57;;
16969;SDS011;8601;48.718;8.992;2024-01-06T11:28:42;1.60;;;1.50;;
16969;SDS011;8601;48.718;8.992;2024-01-06T11:31:12;1.60;;;1.50;;
16969;SDS011;8601;48.718;8.992;2024-01-06T11:33:42;1.50;;;1.40;;
16969;SDS011;8601;48.718;8.992;2024-01-06T11:36:09;1.40;;;1.40;;
16969;SDS011;8601;48.718;8.992;2024-01-06T11:38:37;1.70;;;1.43;;
16969;SDS011;8601;48.718;8.992;2024-01-06T11:41:06;1.93;;;1.60;;
16969;SDS011;8601;48.718;8.992;2024-01-06T11:43:34;1.40;;;1.30;;
16969;SDS011;8601;48.718;8.992;2024-01-06T11:46:04;1.30;;;1.20;;
16969;SDS011;8601;48.718;8.992;2024-01-06T11:48:34;1.20;;;1.20;;
16969;SDS011;8601;48.718;8.992;2024-01-06T11:51:02;1.20;;;1.20;;
16969;SDS011;8601;48.718;8.992;2024-01-06T11:53:29;1.20;;;1.20;;
16969;SDS011;8601;48.718;8.992;2024-01-06T11:55:57;1.30;;;1.30;;
16969;SDS011;8601;48.718;8.992;2024-01-06T11:58:27;1.40;;;1.30;;
16969;SDS011;8601;48.718;8.992;2024-01-06T12:00:55;1.40;;;1.33;;
16969;SDS011;8601;48.718;8.992;2024-01-06T12:03:22;1.23;;;1.23;;
16969;SDS011;8601;48.718;8.992;2024-01-06T12:06:00;1.20;;;1.20;;
16969;SDS011;8601;48.718;8.992;2024-01-06T12:08:27;1.30;;;1.20;;
16969;SDS011;8601;48.718;8.992;2024-01-06T12:11:01;1.27;;;1.27;;
16969;SDS011;8601;48.718;8.992;2024-01-06T12:13:28;1.57;;;1.47;;
16969;SDS011;8601;48.718;8.992;2024-01-06T12:15:55;1.63;;;1.53;;
16969;SDS011;8601;48.718;8.992;2024-01-06T12:18:22;1.70;;;1.60;;
16969;SDS011;8601;48.718;8.992;2024-01-06T12:20:51;1.83;;;1.73;;
16969;SDS011;8601;48.718;8.992;2024-01-06T12:23:28;1.60;;;1.50;;
16969;SDS011;8601;48.718;8.992;2024-01-06T12:25:55;1.40;;;1.30;;
16969;SDS011;8601;48.718;8.992;2024-01-06T12:28:22;4.53;;;3.80;;
16969;SDS011;8601;48.718;8.992;2024-01-06T12:30:49;3.10;;;2.80;;
16969;SDS011;8601;48.718;8.992;2024-01-06T12:33:16;2.57;;;2.37;;
16969;SDS011;8601;48.718;8.992;2024-01-06T12:35:44;3.43;;;2.80;;
16969;SDS011;8601;48.718;8.992;2024-01-06T12:38:11;1.97;;;1.80;;
16969;SDS011;8601;48.718;8.992;2024-01-06T12:40:39;2.00;;;1.80;;
16969;SDS011;8601;48.718;8.992;2024-01-06T12:43:06;2.30;;;2.10;;
16969;SDS011;8601;48.718;8.992;2024-01-06T12:45:33;12.10;;;3.97;;
16969;SDS011;8601;48.718;8.992;2024-01-06T12:48:00;3.40;;;1.70;;
16969;SDS011;8601;48.718;8.992;2024-01-06T12:50:27;2.33;;;2.00;;
16969;SDS011;8601;48.718;8.992;2024-01-06T12:52:53;2.47;;;1.80;;
16969;SDS011;8601;48.718;8.992;2024-01-06T12:55:20;1.80;;;1.70;;
16969;SDS011;8601;48.718;8.992;2024-01-06T12:57:48;1.80;;;1.70;;
16969;SDS011;8601;48.718;8.992;2024-01-06T13:00:16;1.77;;;1.67;;
16969;SDS011;8601;48.718;8.992;2024-01-06T13:02:43;2.30;;;2.10;;
16969;SDS011;8601;48.718;8.992;2024-01-06T13:05:10;2.17;;;1.87;;
16969;SDS011;8601;48.718;8.992;2024-01-06T13:07:38;2.00;;;1.80;;
16969;SDS011;8601;48.718;8.992;2024-01-06T13:10:05;2.07;;;1.97;;
16969;SDS011;8601;48.718;8.992;2024-01-06T13:12:33;1.77;;;1.67;;
16969;SDS011;8601;48.718;8.992;2024-01-06T13:15:01;2.30;;;2.10;;
16969;SDS011;8601;48.718;8.992;2024-01-06T13:17:28;2.17;;;2.07;;
16969;SDS011;8601;48.718;8.992;2024-01-06T13:19:54;2.73;;;2.53;;
16969;SDS011;8601;48.718;8.992;2024-01-06T13:22:22;3.07;;;2.87;;
16969;SDS011;8601;48.718;8.992;2024-01-06T13:24:50;2.60;;;2.40;;
16969;SDS011;8601;48.718;8.992;2024-01-06T13:27:17;2.57;;;2.37;;
16969;SDS011;8601;48.718;8.992;2024-01-06T13:29:44;3.30;;;2.73;;
16969;SDS011;8601;48.718;8.992;2024-01-06T13:32:12;3.40;;;3.10;;
16969;SDS011;8601;48.718;8.992;2024-01-06T13:34:40;2.87;;;2.67;;
16969;SDS011;8601;48.718;8.992;2024-01-06T13:37:07;3.13;;;2.93;;
16969;SDS011;8601;48.718;8.992;2024-01-06T13:39:34;3.00;;;2.80;;
16969;SDS011;8601;48.718;8.992;2024-01-06T13:42:00;3.33;;;3.07;;
16969;SDS011;8601;48.718;8.992;2024-01-06T13:44:29;4.03;;;3.60;;
16969;SDS011;8601;48.718;8.992;2024-01-06T13:46:56;3.57;;;3.27;;
16969;SDS011;8601;48.718;8.992;2024-01-06T13:49:24;3.33;;;3.03;;
16969;SDS011;8601;48.718;8.992;2024-01-06T13:51:53;3.30;;;3.00;;
16969;SDS011;8601;48.718;8.992;2024-01-06T13:54:19;2.73;;;2.53;;
16969;SDS011;8601;48.718;8.992;2024-01-06T13:56:46;3.20;;;2.90;;
16969;SDS011;8601;48.718;8.992;2024-01-06T13:59:13;4.90;;;4.40;;
16969;SDS011;8601;48.718;8.992;2024-01-06T14:01:41;2.97;;;2.77;;
16969;SDS011;8601;48.718;8.992;2024-01-06T14:04:08;2.80;;;2.50;;
16969;SDS011;8601;48.718;8.992;2024-01-06T14:06:37;3.80;;;3.50;;
16969;SDS011;8601;48.718;8.992;2024-01-06T14:09:05;3.20;;;2.90;;
16969;SDS011;8601;48.718;8.992;2024-01-06T14:11:31;2.97;;;2.70;;
16969;SDS011;8601;48.718;8.992;2024-01-06T14:13:59;2.70;;;2.50;;
16969;SDS011;8601;48.718;8.992;2024-01-06T14:16:27;3.00;;;2.80;;
16969;SDS011;8601;48.718;8.992;2024-01-06T14:18:54;2.77;;;2.57;;
16969;SDS011;8601;48.718;8.992;2024-01-06T14:21:22;3.00;;;2.80;;
16969;SDS011;8601;48.718;8.992;2024-01-06T14:23:50;3.20;;;2.87;;
16969;SDS011;8601;48.718;8.992;2024-01-06T14:26:17;3.17;;;2.87;;
16969;SDS011;8601;48.718;8.992;2024-01-06T14:28:45;3.70;;;3.17;;
16969;SDS011;8601;48.718;8.992;2024-01-06T14:31:13;2.67;;;2.40;;
16969;SDS011;8601;48.718;8.992;2024-01-06T14:33:40;3.03;;;2.83;;
16969;SDS011;8601;48.718;8.992;2024-01-06T14:36:07;3.30;;;3.00;;
16969;SDS011;8601;48.718;8.992;2024-01-06T14:38:34;3.63;;;3.33;;
16969;SDS011;8601;48.718;8.992;2024-01-06T14:41:02;3.83;;;3.53;;
16969;SDS011;8601;48.718;8.992;2024-01-06T14:43:32;4.10;;;3.73;;
16969;SDS011;8601;48.718;8.992;2024-01-06T14:45:59;3.73;;;3.43;;
16969;SDS011;8601;48.718;8.992;2024-01-06T14:48:25;3.80;;;3.40;;
16969;SDS011;8601;48.718;8.992;2024-01-06T14:50:52;4.40;;;4.00;;
16969;SDS011;8601;48.718;8.992;2024-01-06T14:53:19;4.50;;;4.10;;
16969;SDS011;8601;48.718;8.992;2024-01-06T14:55:53;3.93;;;3.63;;
16969;SDS011;8601;48.718;8.992;2024-01-06T14:58:21;3.83;;;3.53;;
16969;SDS011;8601;48.718;8.992;2024-01-06T15:00:48;4.00;;;3.60;;
16969;SDS011;8601;48.718;8.992;2024-01-06T15:03:15;3.93;;;3.63;;